sensor_id;sensor_type;location;lat;lon;timestamp;temperature;humidity
20512;DHT22;10414;52.074;5.126;2023-04-03T00:00:09;4.60;99.90
20512;DHT22;10414;52.074;5.126;2023-04-03T00:02:36;4.50;99.90
20512;DHT22;10414;52.074;5.126;2023-04-03T00:05:04;4.50;99.90
20512;DHT22;10414;52.074;5.126;2023-04-03T00:07:30;4.50;99.90
20512;DHT22;10414;52.074;5.126;2023-04-03T00:09:59;4.50;99.90
20512;DHT22;10414;52.074;5.126;2023-04-03T00:12:26;4.60;99.90
20512;DHT22;10414;52.074;5.126;2023-04-03T00:14:52;4.50;99.90
20512;DHT22;10414;52.074;5.126;2023-04-03T00:17:19;4.40;99.90
20512;DHT22;10414;52.074;5.126;2023-04-03T00:19:46;4.40;99.90
20512;DHT22;10414;52.074;5.126;2023-04-03T00:22:14;4.40;99.90
20512;DHT22;10414;52.074;5.126;2023-04-03T00:24:41;4.50;99.90
20512;DHT22;10414;52.074;5.126;2023-04-03T00:27:09;4.40;99.90
20512;DHT22;10414;52.074;5.126;2023-04-03T00:29:36;4.40;99.90
20512;DHT22;10414;52.074;5.126;2023-04-03T00:32:03;4.30;99.90
20512;DHT22;10414;52.074;5.126;2023-04-03T00:34:30;4.30;99.90
20512;DHT22;10414;52.074;5.126;2023-04-03T00:36:57;4.20;99.90
20512;DHT22;10414;52.074;5.126;2023-04-03T00:39:24;4.10;99.90
20512;DHT22;10414;52.074;5.126;2023-04-03T00:41:51;4.30;99.90
20512;DHT22;10414;52.074;5.126;2023-04-03T00:45:21;4.30;99.90
20512;DHT22;10414;52.074;5.126;2023-04-03T00:47:12;4.10;99.90
20512;DHT22;10414;52.074;5.126;2023-04-03T00:49:40;4.30;99.90
20512;DHT22;10414;52.074;5.126;2023-04-03T00:52:11;4.40;99.90
20512;DHT22;10414;52.074;5.126;2023-04-03T00:54:41;4.30;99.90
20512;DHT22;10414;52.074;5.126;2023-04-03T00:57:09;4.30;99.90
20512;DHT22;10414;52.074;5.126;2023-04-03T00:59:40;4.10;99.90
20512;DHT22;10414;52.074;5.126;2023-04-03T01:02:09;4.10;99.90
20512;DHT22;10414;52.074;5.126;2023-04-03T01:04:38;4.00;99.90
20512;DHT22;10414;52.074;5.126;2023-04-03T01:07:07;3.90;99.90
20512;DHT22;10414;52.074;5.126;2023-04-03T01:09:35;3.80;99.90
20512;DHT22;10414;52.074;5.126;2023-04-03T01:12:18;3.80;99.90
20512;DHT22;10414;52.074;5.126;2023-04-03T01:14:50;3.90;99.90
20512;DHT22;10414;52.074;5.126;2023-04-03T01:17:28;3.80;99.90
20512;DHT22;10414;52.074;5.126;2023-04-03T01:20:11;3.70;99.90
20512;DHT22;10414;52.074;5.126;2023-04-03T01:22:45;3.70;99.90
20512;DHT22;10414;52.074;5.126;2023-04-03T01:25:17;3.70;99.90
20512;DHT22;10414;52.074;5.126;2023-04-03T01:27:44;3.60;99.90
20512;DHT22;10414;52.074;5.126;2023-04-03T01:30:14;3.70;99.90
20512;DHT22;10414;52.074;5.126;2023-04-03T01:32:44;3.60;99.90
20512;DHT22;10414;52.074;5.126;2023-04-03T01:35:11;3.60;99.90
20512;DHT22;10414;52.074;5.126;2023-04-03T01:37:38;3.50;99.90
20512;DHT22;10414;52.074;5.126;2023-04-03T01:40:06;3.50;99.90
20512;DHT22;10414;52.074;5.126;2023-04-03T01:42:33;3.50;99.90
20512;DHT22;10414;52.074;5.126;2023-04-03T01:45:00;3.50;99.90
20512;DHT22;10414;52.074;5.126;2023-04-03T01:47:27;3.50;99.90
20512;DHT22;10414;52.074;5.126;2023-04-03T01:49:55;3.60;99.90
20512;DHT22;10414;52.074;5.126;2023-04-03T01:52:22;3.60;99.90
20512;DHT22;10414;52.074;5.126;2023-04-03T01:54:49;3.40;99.90
20512;DHT22;10414;52.074;5.126;2023-04-03T01:57:17;3.40;99.90
20512;DHT22;10414;52.074;5.126;2023-04-03T01:59:43;3.60;99.90
20512;DHT22;10414;52.074;5.126;2023-04-03T02:02:10;3.70;99.90
20512;DHT22;10414;52.074;5.126;2023-04-03T02:04:40;3.60;99.90
20512;DHT22;10414;52.074;5.126;2023-04-03T02:07:08;3.70;99.90
20512;DHT22;10414;52.074;5.126;2023-04-03T02:09:35;3.60;99.90
20512;DHT22;10414;52.074;5.126;2023-04-03T02:12:02;3.50;99.90
20512;DHT22;10414;52.074;5.126;2023-04-03T02:14:29;3.40;99.90
20512;DHT22;10414;52.074;5.126;2023-04-03T02:16:56;3.30;99.90
20512;DHT22;10414;52.074;5.126;2023-04-03T02:19:23;3.30;99.90
20512;DHT22;10414;52.074;5.126;2023-04-03T02:21:49;3.30;99.90
20512;DHT22;10414;52.074;5.126;2023-04-03T02:24:18;3.40;99.90
20512;DHT22;10414;52.074;5.126;2023-04-03T02:26:45;3.40;99.90
20512;DHT22;10414;52.074;5.126;2023-04-03T02:29:12;3.40;99.90
20512;DHT22;10414;52.074;5.126;2023-04-03T02:31:39;3.30;99.90
20512;DHT22;10414;52.074;5.126;2023-04-03T02:34:05;3.30;99.90
20512;DHT22;10414;52.074;5.126;2023-04-03T02:36:32;3.30;99.90
20512;DHT22;10414;52.074;5.126;2023-04-03T02:38:59;3.30;99.90
20512;DHT22;10414;52.074;5.126;2023-04-03T02:41:27;3.30;99.90
20512;DHT22;10414;52.074;5.126;2023-04-03T02:44:00;3.20;99.90
20512;DHT22;10414;52.074;5.126;2023-04-03T02:46:27;3.40;99.90
20512;DHT22;10414;52.074;5.126;2023-04-03T02:48:54;3.40;99.90
20512;DHT22;10414;52.074;5.126;2023-04-03T02:51:22;3.50;99.90
20512;DHT22;10414;52.074;5.126;2023-04-03T02:53:49;3.60;99.90
20512;DHT22;10414;52.074;5.126;2023-04-03T02:56:17;3.50;99.90
20512;DHT22;10414;52.074;5.126;2023-04-03T02:58:46;3.60;99.90
20512;DHT22;10414;52.074;5.126;2023-04-03T03:01:13;3.50;99.90
20512;DHT22;10414;52.074;5.126;2023-04-03T03:03:40;3.60;99.90
20512;DHT22;10414;52.074;5.126;2023-04-03T03:06:08;3.50;99.90
20512;DHT22;10414;52.074;5.126;2023-04-03T03:08:36;3.50;99.90
20512;DHT22;10414;52.074;5.126;2023-04-03T03:11:04;3.50;99.90
20512;DHT22;10414;52.074;5.126;2023-04-03T03:13:31;3.60;99.90
20512;DHT22;10414;52.074;5.126;2023-04-03T03:16:00;3.50;99.90
20512;DHT22;10414;52.074;5.126;2023-04-03T03:18:27;3.40;99.90
20512;DHT22;10414;52.074;5.126;2023-04-03T03:20:55;3.40;99.90
20512;DHT22;10414;52.074;5.126;2023-04-03T03:23:24;3.30;99.90
20512;DHT22;10414;52.074;5.126;2023-04-03T03:25:54;3.20;99.90
20512;DHT22;10414;52.074;5.126;2023-04-03T03:28:22;3.20;99.90
20512;DHT22;10414;52.074;5.126;2023-04-03T03:30:48;3.00;99.90
20512;DHT22;10414;52.074;5.126;2023-04-03T03:33:17;3.10;99.90
20512;DHT22;10414;52.074;5.126;2023-04-03T03:35:44;3.10;99.90
20512;DHT22;10414;52.074;5.126;2023-04-03T03:38:11;3.20;99.90
20512;DHT22;10414;52.074;5.126;2023-04-03T03:40:38;3.20;99.90
20512;DHT22;10414;52.074;5.126;2023-04-03T03:43:05;3.00;99.90
20512;DHT22;10414;52.074;5.126;2023-04-03T03:45:32;2.90;99.90
20512;DHT22;10414;52.074;5.126;2023-04-03T03:47:59;2.80;99.90
20512;DHT22;10414;52.074;5.126;2023-04-03T03:50:27;2.90;99.90
20512;DHT22;10414;52.074;5.126;2023-04-03T03:52:54;2.90;99.90
20512;DHT22;10414;52.074;5.126;2023-04-03T03:55:21;3.00;99.90
20512;DHT22;10414;52.074;5.126;2023-04-03T03:57:47;2.90;99.90
20512;DHT22;10414;52.074;5.126;2023-04-03T04:00:15;2.80;99.90
20512;DHT22;10414;52.074;5.126;2023-04-03T04:02:42;2.70;99.90
20512;DHT22;10414;52.074;5.126;2023-04-03T04:05:10;2.80;99.90
20512;DHT22;10414;52.074;5.126;2023-04-03T04:07:38;2.80;99.90
20512;DHT22;10414;52.074;5.126;2023-04-03T04:10:06;2.60;99.90
20512;DHT22;10414;52.074;5.126;2023-04-03T04:12:32;2.60;99.90
20512;DHT22;10414;52.074;5.126;2023-04-03T04:15:01;2.60;99.90
20512;DHT22;10414;52.074;5.126;2023-04-03T04:17:28;2.80;99.90
20512;DHT22;10414;52.074;5.126;2023-04-03T04:19:54;3.00;99.90
20512;DHT22;10414;52.074;5.126;2023-04-03T04:22:21;3.20;99.90
20512;DHT22;10414;52.074;5.126;2023-04-03T04:24:49;3.20;99.90
20512;DHT22;10414;52.074;5.126;2023-04-03T04:27:16;3.10;99.90
20512;DHT22;10414;52.074;5.126;2023-04-03T04:29:43;3.00;99.90
20512;DHT22;10414;52.074;5.126;2023-04-03T04:32:10;2.90;99.90
20512;DHT22;10414;52.074;5.126;2023-04-03T04:34:37;2.90;99.90
20512;DHT22;10414;52.074;5.126;2023-04-03T04:37:04;3.10;99.90
20512;DHT22;10414;52.074;5.126;2023-04-03T04:39:31;3.10;99.90
20512;DHT22;10414;52.074;5.126;2023-04-03T04:42:02;2.90;99.90
20512;DHT22;10414;52.074;5.126;2023-04-03T04:44:29;2.80;99.90
20512;DHT22;10414;52.074;5.126;2023-04-03T04:46:56;2.70;99.90
20512;DHT22;10414;52.074;5.126;2023-04-03T04:49:23;3.00;99.90
20512;DHT22;10414;52.074;5.126;2023-04-03T04:51:50;2.80;99.90
20512;DHT22;10414;52.074;5.126;2023-04-03T04:54:17;2.70;99.90
20512;DHT22;10414;52.074;5.126;2023-04-03T04:56:44;2.70;99.90
20512;DHT22;10414;52.074;5.126;2023-04-03T04:59:12;2.80;99.90
20512;DHT22;10414;52.074;5.126;2023-04-03T05:01:39;2.90;99.90
20512;DHT22;10414;52.074;5.126;2023-04-03T05:04:06;3.10;99.90
20512;DHT22;10414;52.074;5.126;2023-04-03T05:06:34;3.00;99.90
20512;DHT22;10414;52.074;5.126;2023-04-03T05:09:01;2.90;99.90
20512;DHT22;10414;52.074;5.126;2023-04-03T05:11:28;3.00;99.90
20512;DHT22;10414;52.074;5.126;2023-04-03T05:13:55;3.00;99.90
20512;DHT22;10414;52.074;5.126;2023-04-03T05:16:23;3.00;99.90
20512;DHT22;10414;52.074;5.126;2023-04-03T05:18:50;2.90;99.90
20512;DHT22;10414;52.074;5.126;2023-04-03T05:21:17;2.80;99.90
20512;DHT22;10414;52.074;5.126;2023-04-03T05:23:45;2.80;99.90
20512;DHT22;10414;52.074;5.126;2023-04-03T05:26:12;2.90;99.90
20512;DHT22;10414;52.074;5.126;2023-04-03T05:28:38;3.00;99.90
20512;DHT22;10414;52.074;5.126;2023-04-03T05:31:06;3.10;99.90
20512;DHT22;10414;52.074;5.126;2023-04-03T05:33:34;2.90;99.90
20512;DHT22;10414;52.074;5.126;2023-04-03T05:36:02;2.90;99.90
20512;DHT22;10414;52.074;5.126;2023-04-03T05:38:30;3.00;99.90
20512;DHT22;10414;52.074;5.126;2023-04-03T05:40:57;2.80;99.90
20512;DHT22;10414;52.074;5.126;2023-04-03T05:43:24;2.80;99.90
20512;DHT22;10414;52.074;5.126;2023-04-03T05:45:51;2.80;99.90
20512;DHT22;10414;52.074;5.126;2023-04-03T05:48:18;3.00;99.90
20512;DHT22;10414;52.074;5.126;2023-04-03T05:50:46;2.90;99.90
20512;DHT22;10414;52.074;5.126;2023-04-03T05:53:16;2.90;99.90
20512;DHT22;10414;52.074;5.126;2023-04-03T05:55:44;2.80;99.90
20512;DHT22;10414;52.074;5.126;2023-04-03T05:58:11;2.70;99.90
20512;DHT22;10414;52.074;5.126;2023-04-03T06:00:38;2.80;99.90
20512;DHT22;10414;52.074;5.126;2023-04-03T06:03:05;2.80;99.90
20512;DHT22;10414;52.074;5.126;2023-04-03T06:05:32;2.90;99.90
20512;DHT22;10414;52.074;5.126;2023-04-03T06:08:00;4.20;99.90
20512;DHT22;10414;52.074;5.126;2023-04-03T06:10:28;5.80;99.90
20512;DHT22;10414;52.074;5.126;2023-04-03T06:12:55;6.80;99.90
20512;DHT22;10414;52.074;5.126;2023-04-03T06:15:22;7.50;99.90
20512;DHT22;10414;52.074;5.126;2023-04-03T06:17:49;9.00;99.90
20512;DHT22;10414;52.074;5.126;2023-04-03T06:20:16;10.00;99.90
20512;DHT22;10414;52.074;5.126;2023-04-03T06:22:43;9.70;99.90
20512;DHT22;10414;52.074;5.126;2023-04-03T06:25:11;10.30;99.90
20512;DHT22;10414;52.074;5.126;2023-04-03T06:27:38;9.50;99.90
20512;DHT22;10414;52.074;5.126;2023-04-03T06:30:07;10.00;99.90
20512;DHT22;10414;52.074;5.126;2023-04-03T06:32:34;10.50;99.90
20512;DHT22;10414;52.074;5.126;2023-04-03T06:35:00;11.50;99.90
20512;DHT22;10414;52.074;5.126;2023-04-03T06:37:27;12.80;99.90
20512;DHT22;10414;52.074;5.126;2023-04-03T06:39:56;12.40;99.90
20512;DHT22;10414;52.074;5.126;2023-04-03T06:42:24;12.60;99.90
20512;DHT22;10414;52.074;5.126;2023-04-03T06:44:51;11.20;99.90
20512;DHT22;10414;52.074;5.126;2023-04-03T06:47:18;11.50;99.90
20512;DHT22;10414;52.074;5.126;2023-04-03T06:49:45;11.60;99.90
20512;DHT22;10414;52.074;5.126;2023-04-03T06:52:12;12.90;99.90
20512;DHT22;10414;52.074;5.126;2023-04-03T06:54:39;12.80;99.70
20512;DHT22;10414;52.074;5.126;2023-04-03T06:57:06;13.10;99.60
20512;DHT22;10414;52.074;5.126;2023-04-03T06:59:34;12.60;99.40
20512;DHT22;10414;52.074;5.126;2023-04-03T07:02:02;12.30;99.90
20512;DHT22;10414;52.074;5.126;2023-04-03T07:04:28;13.60;98.60
20512;DHT22;10414;52.074;5.126;2023-04-03T07:06:55;13.40;98.30
20512;DHT22;10414;52.074;5.126;2023-04-03T07:09:23;13.70;98.20
20512;DHT22;10414;52.074;5.126;2023-04-03T07:11:50;13.90;97.50
20512;DHT22;10414;52.074;5.126;2023-04-03T07:14:17;13.60;97.70
20512;DHT22;10414;52.074;5.126;2023-04-03T07:16:45;14.30;96.90
20512;DHT22;10414;52.074;5.126;2023-04-03T07:19:12;14.10;96.60
20512;DHT22;10414;52.074;5.126;2023-04-03T07:21:39;12.70;98.10
20512;DHT22;10414;52.074;5.126;2023-04-03T07:24:09;12.70;99.40
20512;DHT22;10414;52.074;5.126;2023-04-03T07:26:36;13.20;98.10
20512;DHT22;10414;52.074;5.126;2023-04-03T07:29:02;14.50;96.70
20512;DHT22;10414;52.074;5.126;2023-04-03T07:31:30;16.00;94.90
20512;DHT22;10414;52.074;5.126;2023-04-03T07:33:58;14.20;95.50
20512;DHT22;10414;52.074;5.126;2023-04-03T07:36:25;12.60;97.70
20512;DHT22;10414;52.074;5.126;2023-04-03T07:38:52;13.10;97.40
20512;DHT22;10414;52.074;5.126;2023-04-03T07:41:19;13.10;97.20
20512;DHT22;10414;52.074;5.126;2023-04-03T07:43:48;13.10;97.70
20512;DHT22;10414;52.074;5.126;2023-04-03T07:46:16;13.80;96.90
20512;DHT22;10414;52.074;5.126;2023-04-03T07:48:44;14.70;95.30
20512;DHT22;10414;52.074;5.126;2023-04-03T07:51:12;16.50;93.40
20512;DHT22;10414;52.074;5.126;2023-04-03T07:53:39;16.80;91.70
20512;DHT22;10414;52.074;5.126;2023-04-03T07:56:07;15.40;93.30
20512;DHT22;10414;52.074;5.126;2023-04-03T07:58:34;14.90;93.10
20512;DHT22;10414;52.074;5.126;2023-04-03T08:01:00;15.60;91.70
20512;DHT22;10414;52.074;5.126;2023-04-03T08:03:27;15.70;92.00
20512;DHT22;10414;52.074;5.126;2023-04-03T08:05:54;17.60;90.00
20512;DHT22;10414;52.074;5.126;2023-04-03T08:08:23;16.60;87.20
20512;DHT22;10414;52.074;5.126;2023-04-03T08:10:50;15.20;89.90
20512;DHT22;10414;52.074;5.126;2023-04-03T08:13:18;14.10;90.30
20512;DHT22;10414;52.074;5.126;2023-04-03T08:15:45;13.90;90.80
20512;DHT22;10414;52.074;5.126;2023-04-03T08:18:12;13.90;91.50
20512;DHT22;10414;52.074;5.126;2023-04-03T08:20:40;14.40;90.00
20512;DHT22;10414;52.074;5.126;2023-04-03T08:23:07;14.30;90.20
20512;DHT22;10414;52.074;5.126;2023-04-03T08:25:37;13.80;90.30
20512;DHT22;10414;52.074;5.126;2023-04-03T08:28:05;14.00;90.10
20512;DHT22;10414;52.074;5.126;2023-04-03T08:30:32;13.10;90.90
20512;DHT22;10414;52.074;5.126;2023-04-03T08:33:00;15.00;88.00
20512;DHT22;10414;52.074;5.126;2023-04-03T08:35:27;16.00;84.50
20512;DHT22;10414;52.074;5.126;2023-04-03T08:37:54;15.10;86.30
20512;DHT22;10414;52.074;5.126;2023-04-03T08:40:22;15.80;83.80
20512;DHT22;10414;52.074;5.126;2023-04-03T08:43:01;15.70;81.50
20512;DHT22;10414;52.074;5.126;2023-04-03T08:45:38;14.70;81.40
20512;DHT22;10414;52.074;5.126;2023-04-03T08:48:12;14.50;82.30
20512;DHT22;10414;52.074;5.126;2023-04-03T08:50:44;15.90;81.20
20512;DHT22;10414;52.074;5.126;2023-04-03T08:53:15;15.70;79.10
20512;DHT22;10414;52.074;5.126;2023-04-03T08:55:44;15.30;79.80
20512;DHT22;10414;52.074;5.126;2023-04-03T08:58:15;16.40;77.60
20512;DHT22;10414;52.074;5.126;2023-04-03T09:00:46;17.40;74.30
20512;DHT22;10414;52.074;5.126;2023-04-03T09:03:15;17.10;71.10
20512;DHT22;10414;52.074;5.126;2023-04-03T09:05:47;16.50;72.70
20512;DHT22;10414;52.074;5.126;2023-04-03T09:08:22;16.20;74.20
20512;DHT22;10414;52.074;5.126;2023-04-03T09:10:49;16.00;72.30
20512;DHT22;10414;52.074;5.126;2023-04-03T09:13:27;16.70;69.60
20512;DHT22;10414;52.074;5.126;2023-04-03T09:15:56;15.30;68.60
20512;DHT22;10414;52.074;5.126;2023-04-03T09:18:28;14.00;70.10
20512;DHT22;10414;52.074;5.126;2023-04-03T09:21:01;14.00;70.60
20512;DHT22;10414;52.074;5.126;2023-04-03T09:23:34;15.80;69.50
20512;DHT22;10414;52.074;5.126;2023-04-03T09:26:05;14.40;68.30
20512;DHT22;10414;52.074;5.126;2023-04-03T09:28:38;14.30;67.60
20512;DHT22;10414;52.074;5.126;2023-04-03T09:31:16;14.30;68.60
20512;DHT22;10414;52.074;5.126;2023-04-03T09:33:45;14.70;68.40
20512;DHT22;10414;52.074;5.126;2023-04-03T09:36:12;14.90;65.90
20512;DHT22;10414;52.074;5.126;2023-04-03T09:38:39;15.10;66.10
20512;DHT22;10414;52.074;5.126;2023-04-03T09:41:10;13.90;67.80
20512;DHT22;10414;52.074;5.126;2023-04-03T09:43:52;13.80;67.80
20512;DHT22;10414;52.074;5.126;2023-04-03T09:46:28;15.00;66.90
20512;DHT22;10414;52.074;5.126;2023-04-03T09:48:57;14.80;65.60
20512;DHT22;10414;52.074;5.126;2023-04-03T09:51:26;14.30;64.00
20512;DHT22;10414;52.074;5.126;2023-04-03T09:53:54;13.60;66.50
20512;DHT22;10414;52.074;5.126;2023-04-03T09:56:24;13.90;66.50
20512;DHT22;10414;52.074;5.126;2023-04-03T09:59:08;12.70;67.90
20512;DHT22;10414;52.074;5.126;2023-04-03T10:01:58;13.90;66.80
20512;DHT22;10414;52.074;5.126;2023-04-03T10:04:25;14.40;65.60
20512;DHT22;10414;52.074;5.126;2023-04-03T10:07:03;14.10;65.50
20512;DHT22;10414;52.074;5.126;2023-04-03T10:09:31;14.40;62.30
20512;DHT22;10414;52.074;5.126;2023-04-03T10:12:01;13.50;64.30
20512;DHT22;10414;52.074;5.126;2023-04-03T10:14:32;13.30;64.70
20512;DHT22;10414;52.074;5.126;2023-04-03T10:17:05;12.50;65.60
20512;DHT22;10414;52.074;5.126;2023-04-03T10:19:36;12.30;67.10
20512;DHT22;10414;52.074;5.126;2023-04-03T10:22:16;13.70;62.90
20512;DHT22;10414;52.074;5.126;2023-04-03T10:24:57;14.20;62.80
20512;DHT22;10414;52.074;5.126;2023-04-03T10:27:33;14.40;61.50
20512;DHT22;10414;52.074;5.126;2023-04-03T10:30:16;14.20;60.30
20512;DHT22;10414;52.074;5.126;2023-04-03T10:32:54;14.10;61.80
20512;DHT22;10414;52.074;5.126;2023-04-03T10:35:34;13.60;61.70
20512;DHT22;10414;52.074;5.126;2023-04-03T10:38:09;12.20;61.00
20512;DHT22;10414;52.074;5.126;2023-04-03T10:40:46;13.00;61.40
20512;DHT22;10414;52.074;5.126;2023-04-03T10:43:18;13.30;58.80
20512;DHT22;10414;52.074;5.126;2023-04-03T10:45:56;13.80;58.90
20512;DHT22;10414;52.074;5.126;2023-04-03T10:48:40;12.70;58.90
20512;DHT22;10414;52.074;5.126;2023-04-03T10:51:21;12.20;58.80
20512;DHT22;10414;52.074;5.126;2023-04-03T10:53:55;12.50;57.90
20512;DHT22;10414;52.074;5.126;2023-04-03T10:56:30;13.30;58.40
20512;DHT22;10414;52.074;5.126;2023-04-03T10:59:02;12.90;57.70
20512;DHT22;10414;52.074;5.126;2023-04-03T11:01:36;13.00;56.90
20512;DHT22;10414;52.074;5.126;2023-04-03T11:04:06;13.10;57.70
20512;DHT22;10414;52.074;5.126;2023-04-03T11:06:36;12.40;58.10
20512;DHT22;10414;52.074;5.126;2023-04-03T11:09:10;12.40;59.00
20512;DHT22;10414;52.074;5.126;2023-04-03T11:11:39;12.90;58.20
20512;DHT22;10414;52.074;5.126;2023-04-03T11:14:13;12.90;56.90
20512;DHT22;10414;52.074;5.126;2023-04-03T11:16:46;12.90;57.40
20512;DHT22;10414;52.074;5.126;2023-04-03T11:19:19;13.30;57.20
20512;DHT22;10414;52.074;5.126;2023-04-03T11:21:56;13.60;57.40
20512;DHT22;10414;52.074;5.126;2023-04-03T11:24:26;12.60;57.90
20512;DHT22;10414;52.074;5.126;2023-04-03T11:26:55;12.50;58.80
20512;DHT22;10414;52.074;5.126;2023-04-03T11:29:24;12.40;59.90
20512;DHT22;10414;52.074;5.126;2023-04-03T11:32:06;12.30;60.40
20512;DHT22;10414;52.074;5.126;2023-04-03T11:34:36;12.30;62.00
20512;DHT22;10414;52.074;5.126;2023-04-03T11:37:12;12.30;61.70
20512;DHT22;10414;52.074;5.126;2023-04-03T11:39:48;12.50;61.80
20512;DHT22;10414;52.074;5.126;2023-04-03T11:42:24;12.10;61.30
20512;DHT22;10414;52.074;5.126;2023-04-03T11:45:16;11.90;62.50
20512;DHT22;10414;52.074;5.126;2023-04-03T11:47:46;12.10;63.60
20512;DHT22;10414;52.074;5.126;2023-04-03T11:50:37;11.90;63.10
20512;DHT22;10414;52.074;5.126;2023-04-03T11:53:33;11.80;63.70
20512;DHT22;10414;52.074;5.126;2023-04-03T11:56:04;12.40;64.40
20512;DHT22;10414;52.074;5.126;2023-04-03T11:58:32;12.10;65.90
20512;DHT22;10414;52.074;5.126;2023-04-03T12:01:02;12.00;66.00
20512;DHT22;10414;52.074;5.126;2023-04-03T12:09:57;10.50;68.20
20512;DHT22;10414;52.074;5.126;2023-04-03T12:12:29;10.20;68.80
20512;DHT22;10414;52.074;5.126;2023-04-03T12:15:17;10.10;69.20
20512;DHT22;10414;52.074;5.126;2023-04-03T12:17:44;10.00;68.90
20512;DHT22;10414;52.074;5.126;2023-04-03T12:20:51;10.00;70.40
20512;DHT22;10414;52.074;5.126;2023-04-03T12:23:30;10.00;71.80
20512;DHT22;10414;52.074;5.126;2023-04-03T12:26:18;10.00;71.80
20512;DHT22;10414;52.074;5.126;2023-04-03T12:28:48;10.10;72.00
20512;DHT22;10414;52.074;5.126;2023-04-03T12:31:16;10.20;68.90
20512;DHT22;10414;52.074;5.126;2023-04-03T12:34:04;10.00;70.50
20512;DHT22;10414;52.074;5.126;2023-04-03T12:36:44;10.10;70.80
20512;DHT22;10414;52.074;5.126;2023-04-03T12:39:36;10.10;69.90
20512;DHT22;10414;52.074;5.126;2023-04-03T12:42:18;10.10;70.80
20512;DHT22;10414;52.074;5.126;2023-04-03T12:44:54;9.90;70.10
20512;DHT22;10414;52.074;5.126;2023-04-03T12:47:28;9.90;71.30
20512;DHT22;10414;52.074;5.126;2023-04-03T12:49:59;10.00;72.80
20512;DHT22;10414;52.074;5.126;2023-04-03T12:52:37;10.20;72.60
20512;DHT22;10414;52.074;5.126;2023-04-03T12:55:15;10.10;71.90
20512;DHT22;10414;52.074;5.126;2023-04-03T12:57:43;10.20;73.00
20512;DHT22;10414;52.074;5.126;2023-04-03T13:00:30;10.40;72.30
20512;DHT22;10414;52.074;5.126;2023-04-03T13:02:59;10.40;71.50
20512;DHT22;10414;52.074;5.126;2023-04-03T13:05:28;10.20;71.30
20512;DHT22;10414;52.074;5.126;2023-04-03T13:07:59;10.20;71.00
20512;DHT22;10414;52.074;5.126;2023-04-03T13:10:27;10.10;71.60
20512;DHT22;10414;52.074;5.126;2023-04-03T13:12:56;10.20;72.30
20512;DHT22;10414;52.074;5.126;2023-04-03T13:15:26;10.20;73.20
20512;DHT22;10414;52.074;5.126;2023-04-03T13:17:54;10.60;74.40
20512;DHT22;10414;52.074;5.126;2023-04-03T13:20:24;10.30;70.40
20512;DHT22;10414;52.074;5.126;2023-04-03T13:22:56;10.20;71.00
20512;DHT22;10414;52.074;5.126;2023-04-03T13:25:26;10.50;72.50
20512;DHT22;10414;52.074;5.126;2023-04-03T13:27:54;10.00;72.20
20512;DHT22;10414;52.074;5.126;2023-04-03T13:30:27;10.10;72.80
20512;DHT22;10414;52.074;5.126;2023-04-03T13:32:54;10.20;72.50
20512;DHT22;10414;52.074;5.126;2023-04-03T13:35:33;10.20;74.10
20512;DHT22;10414;52.074;5.126;2023-04-03T13:38:03;10.30;74.70
20512;DHT22;10414;52.074;5.126;2023-04-03T13:40:33;10.50;73.90
20512;DHT22;10414;52.074;5.126;2023-04-03T13:43:02;10.50;73.10
20512;DHT22;10414;52.074;5.126;2023-04-03T13:45:30;10.50;73.00
20512;DHT22;10414;52.074;5.126;2023-04-03T13:48:15;10.30;72.70
20512;DHT22;10414;52.074;5.126;2023-04-03T13:51:00;10.30;73.90
20512;DHT22;10414;52.074;5.126;2023-04-03T13:53:29;10.40;75.40
20512;DHT22;10414;52.074;5.126;2023-04-03T13:56:05;10.40;74.10
20512;DHT22;10414;52.074;5.126;2023-04-03T13:58:35;10.40;74.70
20512;DHT22;10414;52.074;5.126;2023-04-03T14:01:06;10.40;74.80
20512;DHT22;10414;52.074;5.126;2023-04-03T14:03:42;10.50;75.40
20512;DHT22;10414;52.074;5.126;2023-04-03T14:06:13;10.60;74.20
20512;DHT22;10414;52.074;5.126;2023-04-03T14:08:41;10.70;74.10
20512;DHT22;10414;52.074;5.126;2023-04-03T14:11:13;10.50;74.00
20512;DHT22;10414;52.074;5.126;2023-04-03T14:13:41;10.40;74.40
20512;DHT22;10414;52.074;5.126;2023-04-03T14:16:13;10.30;75.40
20512;DHT22;10414;52.074;5.126;2023-04-03T14:18:40;10.50;75.30
20512;DHT22;10414;52.074;5.126;2023-04-03T14:21:07;10.50;76.20
20512;DHT22;10414;52.074;5.126;2023-04-03T14:23:34;10.50;75.40
20512;DHT22;10414;52.074;5.126;2023-04-03T14:26:00;10.60;76.80
20512;DHT22;10414;52.074;5.126;2023-04-03T14:28:29;10.60;75.70
20512;DHT22;10414;52.074;5.126;2023-04-03T14:30:56;10.50;74.50
20512;DHT22;10414;52.074;5.126;2023-04-03T14:33:23;10.20;74.10
20512;DHT22;10414;52.074;5.126;2023-04-03T14:35:53;10.20;77.20
20512;DHT22;10414;52.074;5.126;2023-04-03T14:38:25;10.40;76.80
20512;DHT22;10414;52.074;5.126;2023-04-03T14:40:54;10.50;77.10
20512;DHT22;10414;52.074;5.126;2023-04-03T14:43:21;10.60;75.60
20512;DHT22;10414;52.074;5.126;2023-04-03T14:45:50;10.40;76.70
20512;DHT22;10414;52.074;5.126;2023-04-03T14:48:20;10.40;75.20
20512;DHT22;10414;52.074;5.126;2023-04-03T14:50:47;10.50;75.60
20512;DHT22;10414;52.074;5.126;2023-04-03T14:53:14;10.60;75.20
20512;DHT22;10414;52.074;5.126;2023-04-03T14:55:44;10.40;76.40
20512;DHT22;10414;52.074;5.126;2023-04-03T14:58:16;10.40;76.80
20512;DHT22;10414;52.074;5.126;2023-04-03T15:00:43;10.70;77.70
20512;DHT22;10414;52.074;5.126;2023-04-03T15:03:14;10.70;77.10
20512;DHT22;10414;52.074;5.126;2023-04-03T15:05:42;10.60;75.40
20512;DHT22;10414;52.074;5.126;2023-04-03T15:08:18;10.40;74.80
20512;DHT22;10414;52.074;5.126;2023-04-03T15:10:46;10.20;76.80
20512;DHT22;10414;52.074;5.126;2023-04-03T15:13:13;10.20;76.40
20512;DHT22;10414;52.074;5.126;2023-04-03T15:15:41;10.30;78.90
20512;DHT22;10414;52.074;5.126;2023-04-03T15:18:14;10.20;77.90
20512;DHT22;10414;52.074;5.126;2023-04-03T15:20:42;10.30;77.30
20512;DHT22;10414;52.074;5.126;2023-04-03T15:23:10;10.30;75.80
20512;DHT22;10414;52.074;5.126;2023-04-03T15:25:37;10.30;76.10
20512;DHT22;10414;52.074;5.126;2023-04-03T15:28:05;10.30;77.10
20512;DHT22;10414;52.074;5.126;2023-04-03T15:30:32;10.40;78.10
20512;DHT22;10414;52.074;5.126;2023-04-03T15:33:01;10.40;77.80
20512;DHT22;10414;52.074;5.126;2023-04-03T15:35:30;10.40;77.60
20512;DHT22;10414;52.074;5.126;2023-04-03T15:37:56;10.40;78.50
20512;DHT22;10414;52.074;5.126;2023-04-03T15:40:23;10.40;79.00
20512;DHT22;10414;52.074;5.126;2023-04-03T15:42:51;10.50;78.70
20512;DHT22;10414;52.074;5.126;2023-04-03T15:45:18;10.40;79.30
20512;DHT22;10414;52.074;5.126;2023-04-03T15:47:44;10.30;80.30
20512;DHT22;10414;52.074;5.126;2023-04-03T15:50:11;10.50;81.20
20512;DHT22;10414;52.074;5.126;2023-04-03T15:52:39;10.50;82.00
20512;DHT22;10414;52.074;5.126;2023-04-03T15:55:06;10.30;81.60
20512;DHT22;10414;52.074;5.126;2023-04-03T15:57:34;10.20;81.40
20512;DHT22;10414;52.074;5.126;2023-04-03T16:00:00;10.30;82.00